Greenville, SC (29615)

10:30 PM EDT on May 26, 2015 (GMT -0400)
Merrifield Park Subdivision | | Change Station
CLOSE
Current Station
Personal Weather Station
Location: Greenville, SC
Elevation: 1010 ft
Nearby Weather Stations

Elev 1010 ft 34.87 °N, 82.32 °W | Updated 4 seconds ago

Light Rain
Light Rain
66.4 °F
Feels Like 66.4 °F
N
0.0
Wind Variable Wind from SW
Gusts 0.0 mph

Today
High -- | Low -- °F
--% Chance of Precip.
Yesterday
High -- | Low -- °F
Precip. -- in
6:19 AM 8:33 PM
Waxing Gibbous, 63% visible
Pressure 30.22 in
Visibility 10.0 miles
Clouds Few 9000 ft
Mostly Cloudy 11000 ft
Dew Point 65 °F
Humidity 96%
Rainfall 0.43 in
Snow Depth Not available.
UV 0 out of 12
Pollen 1.20 out of 12
Air Quality Not available.
Flu Activity Local Activity
METAR KGMU 270153Z VRB03KT 10SM -RA FEW090 BKN110 19/18 A3024 RMK AO2 LTG DSNT E SLP233 P0009 T01940178

More Conditions Fewer Conditions

Pressure 30.22 in
Visibility 10.0 miles
Clouds Few 9000 ft
Mostly Cloudy 11000 ft
Dew Point 65 °F
Humidity 96%
Rainfall 0.43 in
Snow Depth Not available.
UV 0 out of 12
Pollen 1.20 out of 12
Air Quality Not available.
Flu Activity Local Activity
METAR KGMU 270153Z VRB03KT 10SM -RA FEW090 BKN110 19/18 A3024 RMK AO2 LTG DSNT E SLP233 P0009 T01940178

More Conditions Fewer Conditions

10-Day Weather Forecast

Almanac

Astronomy

May. 26, 2015 Rise Set
Actual Time
Civil Twilight
Nautical Twilight
Astronomical Twilight
Moon
Length of Visible Light
Length of Day
Tomorrow will be .
, % of the Moon is Illuminated

Today's Extremes

State Highs State Lows

Community

WunderPhotos

Upload Photos

1,824,568 photos uploaded!

WunderBlogs® & News

Nearby

Air Quality

  Air Quality AQ Index Pollutant
Not available.

Snow Depth

Station Depth Elevation

Earthquake Activity

City Distance Mag. Time & Date
Minimum magnitude displayed is 2.5.

Coastal Water Temperatures

Place Temperature

Stations

Nearby Weather Stations

Station Location Temp. Windchill Dew Point Humidity Wind Precip. Elev Updated Type